Time;durP1;ratioP1;P1;durP2;ratioP2;P2;SDS_P1;SDS_P2;PMS_P1;PMS_P2;Temp;Humidity;BMP_temperature;BMP_pressure;BME280_temperature;BME280_humidity;BME280_pressure;Samples;Min_cycle;Max_cycle;Signal;HPM_P1;HPM_P2
2023/02/06 00:01:05;;;;;;;;;;;;;;;22.50;15.25;98309.81;4999912;28;898;-76
2023/02/06 00:03:30;;;;;;;;;;;;;;;22.03;15.69;98313.75;4999573;28;965;-77
2023/02/06 00:05:56;;;;;;;;;;;;;;;22.46;15.17;98317.63;4999178;28;1972;-77
2023/02/06 00:08:22;;;;;;;;;;;;;;;22.31;15.23;98312.28;4999129;28;961;-76
2023/02/06 00:10:47;;;;;;;;;;;;;;;22.29;15.35;98311.94;4996972;28;1013;-76
2023/02/06 00:13:13;;;;;;;;;;;;;;;22.26;15.31;98320.53;4999382;28;1035;-76
2023/02/06 00:15:38;;;;;;;;;;;;;;;22.50;15.11;98318.34;4998869;28;1124;-77
2023/02/06 00:18:04;;;;;;;;;;;;;;;22.41;15.27;98324.63;4999370;28;906;-77
2023/02/06 00:20:29;;;;;;;;;;;;;;;22.27;15.37;98316.44;4999387;28;973;-77
2023/02/06 00:22:54;;;;;;;;;;;;;;;22.45;15.23;98321.69;4999257;28;995;-77
2023/02/06 00:25:20;;;;;;;;;;;;;;;22.13;15.52;98322.50;4998518;28;1898;-76
2023/02/06 00:27:45;;;;;;;;;;;;;;;22.39;15.20;98334.81;4997068;28;962;-77
2023/02/06 00:30:11;;;;;;;;;;;;;;;22.00;15.61;98336.50;4999162;28;961;-76
2023/02/06 00:32:37;;;;;;;;;;;;;;;22.22;15.42;98334.00;4998996;28;1010;-76
2023/02/06 00:35:02;;;;;;;;;;;;;;;22.28;15.59;98333.03;4999033;28;954;-76
2023/02/06 00:37:28;;;;;;;;;;;;;;;21.87;16.09;98332.78;4998883;28;940;-76
2023/02/06 00:39:53;;;;;;;;;;;;;;;22.39;15.52;98329.16;4997248;28;2311;-76
2023/02/06 00:42:19;;;;;;;;;;;;;;;22.24;15.45;98329.50;4998631;28;970;-76
2023/02/06 00:44:44;;;;;;;;;;;;;;;22.61;15.24;98335.88;4998490;28;1927;-76
2023/02/06 00:47:10;;;;;;;;;;;;;;;22.45;15.30;98330.22;4998443;28;1031;-76
2023/02/06 00:49:35;;;;;;;;;;;;;;;22.50;15.26;98335.34;4998477;28;1027;-77
2023/02/06 00:52:01;;;;;;;;;;;;;;;22.46;15.65;98346.78;4998440;28;1004;-76
2023/02/06 00:54:26;;;;;;;;;;;;;;;22.39;15.70;98334.81;4998338;28;1150;-77
2023/02/06 00:56:52;;;;;;;;;;;;;;;22.07;15.73;98336.31;4997674;28;1026;-76
2023/02/06 00:59:17;;;;;;;;;;;;;;;22.01;15.92;98321.88;4998350;28;915;-76
2023/02/06 01:01:42;;;;;;;;;;;;;;;21.86;16.13;98323.44;4998386;28;995;-76
2023/02/06 01:04:08;;;;;;;;;;;;;;;22.01;16.08;98326.75;4996796;28;1902;-76
2023/02/06 01:06:36;;;;;;;;;;;;;;;22.14;15.91;98330.53;4997087;28;1429;-76
2023/02/06 01:09:02;;;;;;;;;;;;;;;22.10;15.76;98341.13;4997169;28;1211;-77
2023/02/06 01:11:27;;;;;;;;;;;;;;;22.24;15.49;98323.81;4998418;28;981;-77
2023/02/06 01:13:52;;;;;;;;;;;;;;;22.42;15.53;98328.25;4998249;28;918;-76
2023/02/06 01:16:19;;;;;;;;;;;;;;;22.07;15.84;98330.66;4998340;28;937;-76
2023/02/06 01:18:44;;;;;;;;;;;;;;;21.83;15.75;98288.31;4997803;28;1316;-76
2023/02/06 01:21:17;;;;;;;;;;;;;;;21.89;16.11;98324.63;4996738;28;1079;-77
2023/02/06 01:23:42;;;;;;;;;;;;;;;22.01;15.98;98326.75;4996645;28;1552;-76
2023/02/06 01:26:09;;;;;;;;;;;;;;;22.23;15.73;98321.44;4996652;28;1914;-77
2023/02/06 01:28:35;;;;;;;;;;;;;;;22.24;15.41;98329.50;4996817;28;982;-77
2023/02/06 01:31:01;;;;;;;;;;;;;;;22.48;15.50;98323.63;4996782;28;1188;-77
2023/02/06 01:33:26;;;;;;;;;;;;;;;22.08;15.78;98313.22;4996615;28;1225;-77
2023/02/06 01:35:55;;;;;;;;;;;;;;;22.43;15.77;98318.50;4996398;28;888;-77
2023/02/06 01:38:21;;;;;;;;;;;;;;;22.30;15.62;98310.72;4995628;28;910;-76
2023/02/06 01:40:46;;;;;;;;;;;;;;;22.57;15.43;98321.78;4996765;28;1278;-76
2023/02/06 01:43:21;;;;;;;;;;;;;;;22.45;15.56;98310.34;4996413;28;1127;-76
2023/02/06 01:45:46;;;;;;;;;;;;;;;22.59;15.48;98304.34;4997470;28;1918;-76
2023/02/06 01:48:18;;;;;;;;;;;;;;;22.30;15.70;98310.72;4997839;28;955;-77
2023/02/06 01:50:46;;;;;;;;;;;;;;;22.25;15.66;98301.94;4996207;28;967;-76
2023/02/06 01:53:12;;;;;;;;;;;;;;;22.16;15.84;98299.72;4996311;28;951;-76
2023/02/06 01:55:37;;;;;;;;;;;;;;;22.08;15.52;98299.06;4996212;28;1005;-76
2023/02/06 01:58:03;;;;;;;;;;;;;;;22.28;15.66;98301.84;4995922;28;917;-76
2023/02/06 02:00:28;;;;;;;;;;;;;;;22.21;15.64;98299.19;4996688;28;1148;-76
2023/02/06 02:02:54;;;;;;;;;;;;;;;21.52;16.47;98290.63;4997478;28;1008;-77
2023/02/06 02:05:20;;;;;;;;;;;;;;;22.03;16.05;98301.63;4995843;28;1906;-77
2023/02/06 02:07:47;;;;;;;;;;;;;;;22.53;15.43;98306.09;4997174;28;1004;-77
2023/02/06 02:10:12;;;;;;;;;;;;;;;22.60;15.33;98295.38;4995103;28;1268;-76
2023/02/06 02:12:38;;;;;;;;;;;;;;;21.94;16.19;98298.59;4979691;28;968;-76
2023/02/06 02:15:03;;;;;;;;;;;;;;;22.12;15.75;98287.66;4996112;28;1270;-76
2023/02/06 02:17:37;;;;;;;;;;;;;;;22.18;15.72;98288.75;4995762;28;1010;-76
2023/02/06 02:20:21;;;;;;;;;;;;;;;22.32;15.73;98302.53;4995816;28;897;-76
2023/02/06 02:22:49;;;;;;;;;;;;;;;21.96;15.90;98302.56;4995908;28;1108;-76
2023/02/06 02:25:18;;;;;;;;;;;;;;;22.30;15.69;98307.06;4995617;28;1910;-76
2023/02/06 02:27:56;;;;;;;;;;;;;;;22.88;15.36;98302.34;4997005;28;864;-77
2023/02/06 02:30:56;;;;;;;;;;;;;;;21.95;16.29;98297.34;4979445;28;1420;-76
2023/02/06 02:33:36;;;;;;;;;;;;;;;22.44;15.59;98303.09;5013889;28;955;-76
2023/02/06 02:36:02;;;;;;;;;;;;;;;22.56;15.41;98302.38;4982058;28;1478;-76
2023/02/06 02:38:32;;;;;;;;;;;;;;;22.38;15.86;98311.31;4997525;28;1242;-77
2023/02/06 02:41:16;;;;;;;;;;;;;;;22.28;16.09;98313.19;4997741;28;1102;-78
2023/02/06 02:43:43;;;;;;;;;;;;;;;22.01;15.95;98315.44;5014047;28;1087;-76
2023/02/06 02:46:15;;;;;;;;;;;;;;;22.53;15.52;98318.22;4998053;28;1918;-77
2023/02/06 02:48:41;;;;;;;;;;;;;;;22.39;15.83;98318.59;5015635;28;1631;-76
2023/02/06 02:51:06;;;;;;;;;;;;;;;22.07;16.19;98319.31;5004131;28;1265;-77
2023/02/06 02:53:32;;;;;;;;;;;;;;;22.27;16.07;98328.59;5003767;28;1265;-76
2023/02/06 02:55:59;;;;;;;;;;;;;;;22.28;15.74;98324.53;5020526;28;1655;-77
2023/02/06 02:58:27;;;;;;;;;;;;;;;22.26;15.86;98324.16;5020415;28;1247;-77
2023/02/06 03:01:12;;;;;;;;;;;;;;;22.06;16.20;98323.41;4964881;28;1592;-76
2023/02/06 03:03:39;;;;;;;;;;;;;;;22.12;15.83;98344.34;4965186;28;949;-77
2023/02/06 03:06:04;;;;;;;;;;;;;;;22.33;15.99;98329.69;4965146;28;1902;-77
2023/02/06 03:08:40;;;;;;;;;;;;;;;21.90;16.08;98331.88;4962141;28;973;-77
2023/02/06 03:11:10;;;;;;;;;;;;;;;22.13;16.13;98333.81;4946162;29;1084;-77
2023/02/06 03:13:43;;;;;;;;;;;;;;;22.05;16.32;98331.09;4946065;29;1124;-77
2023/02/06 03:16:12;;;;;;;;;;;;;;;22.79;15.60;98330.53;4945865;28;998;-77
2023/02/06 03:19:16;;;;;;;;;;;;;;;22.38;15.91;98336.03;4961847;29;1315;-76
2023/02/06 03:21:41;;;;;;;;;;;;;;;22.30;16.15;98333.38;4889197;29;1246;-77
2023/02/06 03:24:09;;;;;;;;;;;;;;;22.42;15.73;98339.59;4889155;29;1906;-77
2023/02/06 03:26:36;;;;;;;;;;;;;;;22.19;16.08;98338.50;4888978;29;1178;-77
2023/02/06 03:29:02;;;;;;;;;;;;;;;22.06;16.25;98331.91;4888976;29;974;-77
2023/02/06 03:31:29;;;;;;;;;;;;;;;22.12;15.96;98333.00;4889265;29;1045;-77
2023/02/06 03:33:57;;;;;;;;;;;;;;;21.65;16.47;98336.03;4889193;29;1031;-77
2023/02/06 03:36:22;;;;;;;;;;;;;;;22.62;15.60;98326.13;4889355;29;987;-77
2023/02/06 03:38:48;;;;;;;;;;;;;;;22.31;16.07;98334.97;4915426;29;957;-77
2023/02/06 03:41:14;;;;;;;;;;;;;;;22.07;16.30;98336.31;4903899;29;1116;-77
2023/02/06 03:43:40;;;;;;;;;;;;;;;22.36;15.73;98323.09;4885396;29;1035;-77
2023/02/06 03:46:06;;;;;;;;;;;;;;;22.26;15.90;98321.34;4869843;29;1974;-77
2023/02/06 03:48:35;;;;;;;;;;;;;;;21.96;16.28;98327.28;4885678;29;1062;-77
2023/02/06 03:51:02;;;;;;;;;;;;;;;21.98;16.21;98339.00;4870284;29;1235;-77
2023/02/06 03:53:27;;;;;;;;;;;;;;;21.74;16.32;98347.59;4922250;29;1001;-77
2023/02/06 03:55:53;;;;;;;;;;;;;;;21.91;16.36;98350.47;4942251;29;1025;-76
2023/02/06 03:58:19;;;;;;;;;;;;;;;21.87;16.18;98358.25;4926370;29;1248;-76
2023/02/06 04:00:44;;;;;;;;;;;;;;;22.04;16.36;98349.34;4939771;29;1476;-77
2023/02/06 04:03:10;;;;;;;;;;;;;;;22.27;15.75;98356.94;4939541;29;951;-77
2023/02/06 04:05:36;;;;;;;;;;;;;;;22.74;15.29;98356.63;4939402;29;1923;-77
2023/02/06 04:08:01;;;;;;;;;;;;;;;22.31;16.12;98369.00;4938853;29;988;-77
2023/02/06 04:10:26;;;;;;;;;;;;;;;22.39;15.83;98374.50;4939178;29;1030;-77
2023/02/06 04:12:52;;;;;;;;;;;;;;;22.32;15.55;98375.47;4954137;28;977;-77
2023/02/06 04:15:17;;;;;;;;;;;;;;;21.84;16.22;98380.56;4953769;28;1004;-76
2023/02/06 04:17:43;;;;;;;;;;;;;;;21.89;16.25;98375.63;4960350;29;954;-76
2023/02/06 04:20:09;;;;;;;;;;;;;;;22.35;15.87;98378.22;4975409;28;986;-77
2023/02/06 04:22:34;;;;;;;;;;;;;;;21.50;16.33;98374.38;4960798;28;906;-77
2023/02/06 04:24:59;;;;;;;;;;;;;;;22.17;16.12;98379.84;4960020;29;1981;-77
2023/02/06 04:27:25;;;;;;;;;;;;;;;22.47;15.45;98375.91;4960436;29;895;-77
2023/02/06 04:29:50;;;;;;;;;;;;;;;22.12;16.22;98374.72;4974384;28;962;-76
2023/02/06 04:32:16;;;;;;;;;;;;;;;21.85;16.11;98375.69;4960506;29;995;-77
2023/02/06 04:34:41;;;;;;;;;;;;;;;22.33;15.67;98383.53;4960268;28;1032;-77
2023/02/06 04:37:07;;;;;;;;;;;;;;;21.90;16.26;98388.53;4959992;29;905;-77
2023/02/06 04:39:32;;;;;;;;;;;;;;;21.77;16.18;98382.75;4969159;28;1034;-76
2023/02/06 04:41:58;;;;;;;;;;;;;;;22.55;15.63;98383.03;4999985;28;1758;-76
2023/02/06 04:44:23;;;;;;;;;;;;;;;22.30;15.50;98390.09;4999623;28;1922;-76
2023/02/06 04:46:48;;;;;;;;;;;;;;;22.02;15.89;98390.69;5018145;28;930;-77
2023/02/06 04:49:14;;;;;;;;;;;;;;;22.02;16.07;98396.34;5018206;28;921;-76
2023/02/06 04:51:40;;;;;;;;;;;;;;;21.71;16.37;98405.13;5018451;28;899;-76
2023/02/06 04:54:05;;;;;;;;;;;;;;;21.85;16.25;98415.34;5000777;28;996;-77
2023/02/06 04:56:30;;;;;;;;;;;;;;;22.55;15.54;98417.06;5018515;28;957;-77
2023/02/06 04:58:56;;;;;;;;;;;;;;;22.31;15.58;98422.84;5014826;28;1287;-77
2023/02/06 05:01:21;;;;;;;;;;;;;;;22.35;15.55;98415.06;4988899;28;1640;-77
2023/02/06 05:03:47;;;;;;;;;;;;;;;22.41;15.80;98423.06;5017793;28;1000;-76
2023/02/06 05:06:12;;;;;;;;;;;;;;;22.07;15.79;98427.84;5000526;28;1965;-76
2023/02/06 05:08:38;;;;;;;;;;;;;;;22.01;15.71;98428.75;5017436;28;917;-76
2023/02/06 05:11:03;;;;;;;;;;;;;;;22.52;15.52;98429.28;5017741;28;1571;-77
2023/02/06 05:13:29;;;;;;;;;;;;;;;22.36;15.52;98432.88;5000055;28;913;-77
2023/02/06 05:15:56;;;;;;;;;;;;;;;21.83;15.97;98423.50;5018424;28;916;-77
2023/02/06 05:18:22;;;;;;;;;;;;;;;21.87;16.22;98440.41;5018279;28;884;-77
2023/02/06 05:20:48;;;;;;;;;;;;;;;22.47;15.26;98444.78;5016705;28;1360;-78
2023/02/06 05:23:13;;;;;;;;;;;;;;;21.69;16.42;98447.22;5008440;28;1523;-77
2023/02/06 05:25:38;;;;;;;;;;;;;;;22.17;15.63;98439.38;4998937;28;1985;-78
2023/02/06 05:28:06;;;;;;;;;;;;;;;21.83;15.96;98440.47;5017426;28;1595;-77
2023/02/06 05:30:34;;;;;;;;;;;;;;;21.90;16.13;98433.88;5000435;28;936;-77
2023/02/06 05:33:00;;;;;;;;;;;;;;;22.13;15.99;98436.66;4982776;28;1256;-77
2023/02/06 05:35:25;;;;;;;;;;;;;;;21.82;16.01;98428.34;5000076;28;973;-77
2023/02/06 05:37:51;;;;;;;;;;;;;;;22.33;15.74;98433.78;5017048;28;957;-78
2023/02/06 05:40:16;;;;;;;;;;;;;;;21.74;16.23;98431.75;5017539;28;1571;-78
2023/02/06 05:42:41;;;;;;;;;;;;;;;21.58;16.44;98440.97;4999687;28;931;-77
2023/02/06 05:45:07;;;;;;;;;;;;;;;21.45;16.25;98442.84;5017322;28;1977;-77
2023/02/06 05:47:33;;;;;;;;;;;;;;;21.98;15.95;98426.81;4983745;28;992;-77
2023/02/06 05:49:58;;;;;;;;;;;;;;;21.89;16.08;98427.41;5017548;28;917;-77
2023/02/06 05:52:24;;;;;;;;;;;;;;;22.07;15.72;98430.66;5000116;28;800;-77
2023/02/06 05:54:49;;;;;;;;;;;;;;;22.17;15.83;98436.53;5016828;28;1010;-77
2023/02/06 05:57:14;;;;;;;;;;;;;;;21.77;16.18;98437.38;5017283;28;968;-77
2023/02/06 05:59:40;;;;;;;;;;;;;;;22.22;15.85;98439.66;4999233;28;971;-77
2023/02/06 06:02:05;;;;;;;;;;;;;;;22.41;15.59;98434.41;4983245;28;944;-77
2023/02/06 06:04:31;;;;;;;;;;;;;;;22.41;15.71;98435.19;4998898;28;1902;-77
2023/02/06 06:06:56;;;;;;;;;;;;;;;21.82;15.92;98428.34;5017257;28;980;-77
2023/02/06 06:09:22;;;;;;;;;;;;;;;21.76;16.12;98424.44;5016947;28;1147;-77
2023/02/06 06:11:47;;;;;;;;;;;;;;;22.23;15.65;98426.31;5016813;28;1597;-77
2023/02/06 06:14:13;;;;;;;;;;;;;;;21.96;15.60;98421.56;4999508;28;1009;-77
2023/02/06 06:16:39;;;;;;;;;;;;;;;22.31;15.61;98428.53;4999279;28;861;-77
2023/02/06 06:19:05;;;;;;;;;;;;;;;22.02;15.54;98434.00;4998994;28;960;-77
2023/02/06 06:21:30;;;;;;;;;;;;;;;22.12;15.73;98446.34;4999364;28;1002;-77
2023/02/06 06:23:55;;;;;;;;;;;;;;;22.25;15.57;98444.47;5015524;28;1337;-78
2023/02/06 06:26:21;;;;;;;;;;;;;;;22.20;15.74;98453.47;5016803;28;1997;-77
2023/02/06 06:28:46;;;;;;;;;;;;;;;22.34;15.71;98452.38;4982889;28;989;-77
2023/02/06 06:31:12;;;;;;;;;;;;;;;22.18;15.45;98441.78;5015065;28;1288;-77
2023/02/06 06:33:38;;;;;;;;;;;;;;;21.81;15.85;98443.75;5014708;28;1389;-78
2023/02/06 06:36:04;;;;;;;;;;;;;;;21.67;16.06;98449.69;4983255;28;1492;-78
2023/02/06 06:38:29;;;;;;;;;;;;;;;21.42;16.65;98460.72;4998384;28;1457;-77
2023/02/06 06:40:55;;;;;;;;;;;;;;;21.58;16.39;98469.28;5015877;28;1479;-77
2023/02/06 06:43:20;;;;;;;;;;;;;;;21.93;16.00;98469.84;5016688;28;919;-77
2023/02/06 06:45:46;;;;;;;;;;;;;;;22.20;15.65;98453.47;5015278;28;1914;-77
2023/02/06 06:48:11;;;;;;;;;;;;;;;22.35;15.47;98459.63;5014880;28;934;-77
2023/02/06 06:50:36;;;;;;;;;;;;;;;22.62;15.24;98450.91;5016196;28;918;-77
2023/02/06 06:53:03;;;;;;;;;;;;;;;22.29;15.63;98439.53;5016581;28;896;-77
2023/02/06 06:55:28;;;;;;;;;;;;;;;21.75;16.07;98456.00;4993402;28;1440;-77
2023/02/06 06:57:53;;;;;;;;;;;;;;;22.18;15.96;98438.16;4975031;28;999;-77
2023/02/06 07:00:19;;;;;;;;;;;;;;;21.67;16.27;98444.03;4975124;28;1718;-77
2023/02/06 07:02:44;;;;;;;;;;;;;;;21.67;16.45;98452.53;4958730;28;1000;-77
2023/02/06 07:05:10;;;;;;;;;;;;;;;22.13;16.05;98442.31;4974841;28;1906;-77
2023/02/06 07:07:37;;;;;;;;;;;;;;;21.88;16.27;98444.84;4959226;28;1101;-78
2023/02/06 07:10:03;;;;;;;;;;;;;;;22.58;15.36;98445.31;4954857;29;1372;-77
2023/02/06 07:12:28;;;;;;;;;;;;;;;21.94;15.99;98451.59;4955548;28;1020;-77
2023/02/06 07:14:54;;;;;;;;;;;;;;;21.37;16.93;98452.72;4955514;29;944;-78
2023/02/06 07:17:19;;;;;;;;;;;;;;;22.11;16.10;98456.09;4955873;29;973;-77
2023/02/06 07:19:46;;;;;;;;;;;;;;;21.93;16.20;98455.66;4955488;28;1868;-77
2023/02/06 07:22:13;;;;;;;;;;;;;;;21.85;16.20;98444.47;4955465;28;905;-77
2023/02/06 07:24:38;;;;;;;;;;;;;;;21.89;16.33;98450.06;4957680;28;1907;-78
2023/02/06 07:27:03;;;;;;;;;;;;;;;21.64;16.38;98455.44;4958980;28;1051;-77
2023/02/06 07:29:29;;;;;;;;;;;;;;;21.72;16.34;98446.38;4988727;28;967;-77
2023/02/06 07:31:54;;;;;;;;;;;;;;;21.63;16.58;98460.31;4998748;28;952;-77
2023/02/06 07:34:20;;;;;;;;;;;;;;;22.00;16.24;98449.84;5016153;28;919;-77
2023/02/06 07:36:46;;;;;;;;;;;;;;;21.75;16.33;98456.81;5018700;28;957;-78
2023/02/06 07:39:11;;;;;;;;;;;;;;;22.19;16.16;98457.56;5018969;28;1357;-77
2023/02/06 07:41:37;;;;;;;;;;;;;;;21.75;16.21;98470.19;5019710;28;963;-77
2023/02/06 07:44:03;;;;;;;;;;;;;;;21.65;16.22;98451.34;5002370;28;1906;-77
2023/02/06 07:46:29;;;;;;;;;;;;;;;22.04;15.94;98454.19;5002146;28;1095;-77
2023/02/06 07:48:54;;;;;;;;;;;;;;;22.11;15.92;98458.94;5019349;28;985;-78
2023/02/06 07:51:20;;;;;;;;;;;;;;;21.84;16.38;98448.53;4985842;28;1292;-77
2023/02/06 07:53:45;;;;;;;;;;;;;;;21.95;16.12;98447.53;5000713;28;1446;-78
2023/02/06 07:56:11;;;;;;;;;;;;;;;22.39;15.78;98465.25;5001846;28;1384;-77
2023/02/06 07:58:37;;;;;;;;;;;;;;;21.85;16.36;98455.78;5019039;28;953;-77
2023/02/06 08:01:03;;;;;;;;;;;;;;;21.98;16.01;98466.50;5001666;28;991;-77
2023/02/06 08:03:29;;;;;;;;;;;;;;;22.10;16.23;98465.81;5001528;28;934;-77
2023/02/06 08:05:54;;;;;;;;;;;;;;;21.74;16.29;98472.22;4985346;28;2232;-78
2023/02/06 08:08:20;;;;;;;;;;;;;;;21.72;16.45;98483.19;5000894;28;1575;-78
2023/02/06 08:10:45;;;;;;;;;;;;;;;21.55;16.35;98487.97;5019118;28;928;-78
2023/02/06 08:13:11;;;;;;;;;;;;;;;21.67;16.18;98500.69;5019010;28;954;-78
2023/02/06 08:15:36;;;;;;;;;;;;;;;22.05;15.99;98495.47;5018997;28;922;-78
2023/02/06 08:18:02;;;;;;;;;;;;;;;22.22;15.77;98519.03;4985067;28;1101;-78
2023/02/06 08:20:27;;;;;;;;;;;;;;;22.08;15.93;98510.81;5018716;28;916;-78
2023/02/06 08:22:53;;;;;;;;;;;;;;;21.65;16.48;98514.47;5000485;28;1447;-77
2023/02/06 08:25:18;;;;;;;;;;;;;;;21.83;16.28;98528.31;5001067;28;1910;-77
2023/02/06 08:27:44;;;;;;;;;;;;;;;22.25;15.48;98540.84;5001349;28;972;-77
2023/02/06 08:30:10;;;;;;;;;;;;;;;21.81;16.29;98542.91;5001178;28;966;-77
2023/02/06 08:32:36;;;;;;;;;;;;;;;22.05;15.70;98542.84;5001253;28;1023;-77
2023/02/06 08:35:01;;;;;;;;;;;;;;;21.87;16.24;98548.06;5000786;28;940;-77
2023/02/06 08:37:26;;;;;;;;;;;;;;;22.26;15.60;98553.78;4983169;28;1395;-78
2023/02/06 08:39:52;;;;;;;;;;;;;;;22.36;15.81;98557.63;5000858;28;1173;-77
2023/02/06 08:42:17;;;;;;;;;;;;;;;21.91;16.01;98548.78;5000858;28;918;-77
2023/02/06 08:44:43;;;;;;;;;;;;;;;21.73;16.10;98558.41;5000628;28;1910;-77
2023/02/06 08:47:08;;;;;;;;;;;;;;;21.62;16.35;98555.00;5000103;28;979;-78
2023/02/06 08:49:34;;;;;;;;;;;;;;;22.01;15.81;98559.09;5017028;28;956;-77
2023/02/06 08:52:00;;;;;;;;;;;;;;;21.84;16.16;98544.84;5017522;28;1422;-78
2023/02/06 08:54:25;;;;;;;;;;;;;;;22.09;15.89;98557.75;5000449;28;1232;-77
2023/02/06 08:56:51;;;;;;;;;;;;;;;21.95;15.95;98555.19;5018430;28;985;-76
2023/02/06 08:59:17;;;;;;;;;;;;;;;21.83;15.88;98565.91;5017721;28;964;-77
2023/02/06 09:01:44;;;;;;;;;;;;;;;21.93;15.81;98574.66;4976631;28;968;-77
2023/02/06 09:04:10;;;;;;;;;;;;;;;22.38;15.39;98565.69;4960393;28;1911;-78
2023/02/06 09:06:36;;;;;;;;;;;;;;;21.61;16.27;98563.94;4975952;28;1359;-77
2023/02/06 09:09:02;;;;;;;;;;;;;;;22.23;15.67;98571.66;4976486;28;984;-77
2023/02/06 09:11:28;;;;;;;;;;;;;;;22.51;15.42;98549.63;4937731;29;1011;-77
2023/02/06 09:13:54;;;;;;;;;;;;;;;22.19;15.75;98559.59;4937979;29;1057;-77
2023/02/06 09:16:19;;;;;;;;;;;;;;;22.40;15.63;98563.22;4937520;29;1104;-77
2023/02/06 09:18:45;;;;;;;;;;;;;;;22.27;15.70;98560.25;4937654;29;959;-77
2023/02/06 09:21:14;;;;;;;;;;;;;;;21.98;15.87;98565.66;4937228;29;1344;-78
2023/02/06 09:23:42;;;;;;;;;;;;;;;21.97;15.66;98558.41;4936994;29;1506;-77
2023/02/06 09:26:11;;;;;;;;;;;;;;;22.06;15.79;98570.75;4937585;29;1915;-78
2023/02/06 09:28:36;;;;;;;;;;;;;;;21.81;16.05;98571.22;4937360;29;1032;-77
2023/02/06 09:31:01;;;;;;;;;;;;;;;22.10;15.69;98579.19;4937046;29;1369;-77
2023/02/06 09:33:27;;;;;;;;;;;;;;;21.46;16.29;98563.38;4968476;28;1550;-77
2023/02/06 09:36:04;;;;;;;;;;;;;;;21.72;16.00;98570.19;4975173;28;1553;-78
2023/02/06 09:38:30;;;;;;;;;;;;;;;21.96;15.90;98568.13;4958837;28;1980;-77
2023/02/06 09:40:56;;;;;;;;;;;;;;;21.61;16.03;98564.72;4974959;28;1412;-77
2023/02/06 09:43:21;;;;;;;;;;;;;;;21.88;15.79;98561.00;4975789;28;943;-77
2023/02/06 09:45:48;;;;;;;;;;;;;;;22.01;15.60;98559.09;4975515;28;1914;-77
2023/02/06 09:48:18;;;;;;;;;;;;;;;21.67;15.96;98557.31;4985237;28;1116;-77
2023/02/06 09:50:50;;;;;;;;;;;;;;;21.70;15.79;98550.78;4994619;28;1410;-77
2023/02/06 09:53:31;;;;;;;;;;;;;;;21.68;16.12;98558.91;4978874;28;1032;-77
2023/02/06 09:56:11;;;;;;;;;;;;;;;21.86;15.76;98552.91;4995260;28;1033;-77
2023/02/06 09:58:55;;;;;;;;;;;;;;;21.79;15.99;98559.50;4977896;28;1013;-77
2023/02/06 10:01:39;;;;;;;;;;;;;;;21.41;15.83;98515.72;4995180;28;980;-77
2023/02/06 10:04:23;;;;;;;;;;;;;;;21.25;16.34;98564.50;4957807;28;1405;-77
2023/02/06 10:06:52;;;;;;;;;;;;;;;22.21;15.72;98567.66;4956137;28;1120;-77
2023/02/06 10:09:24;;;;;;;;;;;;;;;22.15;15.37;98570.19;4956011;28;956;-77
2023/02/06 10:11:54;;;;;;;;;;;;;;;21.66;15.93;98567.06;4988578;28;1478;-78
2023/02/06 10:14:21;;;;;;;;;;;;;;;22.08;15.37;98565.44;4978677;28;968;-77
2023/02/06 10:16:46;;;;;;;;;;;;;;;22.48;15.21;98561.81;4959994;28;2211;-77
2023/02/06 10:19:23;;;;;;;;;;;;;;;22.12;15.39;98568.22;4956315;28;851;-77
2023/02/06 10:22:01;;;;;;;;;;;;;;;22.19;15.46;98582.28;4977157;28;987;-77
2023/02/06 10:24:38;;;;;;;;;;;;;;;22.51;15.26;98575.16;4979230;28;1894;-77
2023/02/06 10:27:05;;;;;;;;;;;;;;;21.81;15.53;98585.41;4998804;28;1049;-77
2023/02/06 10:29:30;;;;;;;;;;;;;;;22.21;15.59;98590.34;5016454;28;905;-77
2023/02/06 10:32:06;;;;;;;;;;;;;;;22.25;15.33;98597.53;4998776;28;1008;-78
2023/02/06 10:34:44;;;;;;;;;;;;;;;22.18;15.42;98579.88;4999138;28;911;-78
2023/02/06 10:37:16;;;;;;;;;;;;;;;21.81;15.65;98599.56;4998654;28;948;-77
2023/02/06 10:39:44;;;;;;;;;;;;;;;21.93;15.74;98600.16;5015997;28;1302;-77
2023/02/06 10:42:09;;;;;;;;;;;;;;;22.50;15.58;98607.59;5016038;28;1027;-78
2023/02/06 10:44:38;;;;;;;;;;;;;;;22.15;15.55;98601.38;5016331;28;1969;-77
2023/02/06 10:47:03;;;;;;;;;;;;;;;22.01;15.73;98615.78;5016056;28;906;-77
2023/02/06 10:49:31;;;;;;;;;;;;;;;22.28;15.43;98624.22;4998836;28;942;-77
2023/02/06 10:51:58;;;;;;;;;;;;;;;22.07;15.54;98609.19;5016116;28;936;-77
2023/02/06 10:54:24;;;;;;;;;;;;;;;22.37;15.29;98621.59;4997893;28;1544;-76
2023/02/06 10:56:50;;;;;;;;;;;;;;;22.21;15.62;98630.03;4999039;28;1007;-77
2023/02/06 10:59:22;;;;;;;;;;;;;;;22.34;15.38;98628.94;4999243;28;939;-77
2023/02/06 11:01:48;;;;;;;;;;;;;;;22.60;15.10;98641.41;5016192;28;948;-77
2023/02/06 11:04:14;;;;;;;;;;;;;;;22.36;15.33;98629.31;5016175;28;1898;-77
2023/02/06 11:06:41;;;;;;;;;;;;;;;22.30;15.54;98616.88;5016177;28;983;-77
2023/02/06 11:09:07;;;;;;;;;;;;;;;22.02;15.80;98617.38;5015483;28;1352;-77
2023/02/06 11:11:37;;;;;;;;;;;;;;;22.80;14.97;98615.06;5020188;28;984;-77
2023/02/06 11:14:06;;;;;;;;;;;;;;;22.74;14.93;98603.44;5002371;28;893;-77
2023/02/06 11:16:31;;;;;;;;;;;;;;;22.71;15.36;98618.47;5019719;28;973;-77
2023/02/06 11:18:58;;;;;;;;;;;;;;;22.75;15.14;98607.84;5002257;28;945;-77
2023/02/06 11:21:42;;;;;;;;;;;;;;;22.96;15.14;98605.81;5019980;28;987;-77
2023/02/06 11:24:08;;;;;;;;;;;;;;;22.50;15.64;98618.94;5019166;28;1449;-77
2023/02/06 11:26:38;;;;;;;;;;;;;;;22.30;15.75;98614.03;5020079;28;1979;-77
2023/02/06 11:29:14;;;;;;;;;;;;;;;22.45;15.52;98596.75;5002470;28;947;-77
2023/02/06 11:31:40;;;;;;;;;;;;;;;22.24;15.58;98607.28;5002361;28;938;-77
2023/02/06 11:34:06;;;;;;;;;;;;;;;22.09;15.76;98594.59;5019426;28;1115;-78
2023/02/06 11:36:33;;;;;;;;;;;;;;;22.34;15.42;98600.59;5001246;28;1026;-77
2023/02/06 11:39:03;;;;;;;;;;;;;;;22.12;15.73;98599.41;5018810;28;1409;-78
2023/02/06 11:41:29;;;;;;;;;;;;;;;22.22;15.58;98603.28;4984753;28;986;-77
2023/02/06 11:44:01;;;;;;;;;;;;;;;22.31;15.79;98612.81;5019152;28;902;-77
2023/02/06 11:46:27;;;;;;;;;;;;;;;22.43;15.42;98619.06;5002826;28;1977;-77
2023/02/06 11:48:53;;;;;;;;;;;;;;;22.28;15.54;98610.84;5019228;28;920;-77
2023/02/06 11:51:18;;;;;;;;;;;;;;;22.45;15.24;98608.09;5001594;28;1007;-77
2023/02/06 11:54:13;;;;;;;;;;;;;;;22.04;15.82;98614.94;4996052;28;1487;-77
2023/02/06 11:56:38;;;;;;;;;;;;;;;22.47;15.45;98619.78;4958334;29;1032;-77
2023/02/06 11:59:04;;;;;;;;;;;;;;;22.21;15.77;98610.97;4958180;29;953;-76
2023/02/06 12:01:35;;;;;;;;;;;;;;;22.30;15.48;98599.06;4958429;29;1102;-77
2023/02/06 12:04:01;;;;;;;;;;;;;;;22.20;15.63;98612.22;4958093;29;953;-77
2023/02/06 12:06:31;;;;;;;;;;;;;;;22.21;15.90;98607.34;4958450;29;1915;-77
2023/02/06 12:08:57;;;;;;;;;;;;;;;21.68;16.31;98609.91;4967634;28;1392;-77
2023/02/06 12:11:22;;;;;;;;;;;;;;;22.51;15.36;98603.50;4977460;28;1039;-77
2023/02/06 12:13:50;;;;;;;;;;;;;;;22.44;15.78;98603.66;4977421;28;1187;-77
2023/02/06 12:16:15;;;;;;;;;;;;;;;22.53;15.55;98601.03;4960975;28;1457;-78
2023/02/06 12:18:42;;;;;;;;;;;;;;;22.71;15.34;98606.34;4961125;28;1045;-78
2023/02/06 12:21:11;;;;;;;;;;;;;;;22.69;15.26;98595.44;4937851;29;1029;-77
2023/02/06 12:23:43;;;;;;;;;;;;;;;22.11;15.99;98597.81;4938548;29;1088;-77
2023/02/06 12:26:13;;;;;;;;;;;;;;;22.60;15.68;98600.88;4916903;29;1907;-77
2023/02/06 12:28:53;;;;;;;;;;;;;;;22.03;15.87;98599.97;4919494;29;1070;-78
2023/02/06 12:31:23;;;;;;;;;;;;;;;21.89;16.03;98602.25;4919521;29;990;-77
2023/02/06 12:33:50;;;;;;;;;;;;;;;21.92;16.14;98610.69;4951166;29;1134;-77
2023/02/06 12:36:19;;;;;;;;;;;;;;;22.04;16.12;98603.59;4957841;28;962;-78
2023/02/06 12:38:46;;;;;;;;;;;;;;;22.69;15.25;98603.94;4957587;29;1044;-77
2023/02/06 12:41:18;;;;;;;;;;;;;;;22.01;16.00;98604.44;4965494;28;1667;-77
2023/02/06 12:43:44;;;;;;;;;;;;;;;22.42;15.93;98606.91;4977267;28;979;-77
2023/02/06 12:46:14;;;;;;;;;;;;;;;22.08;16.07;98598.66;4961123;28;1918;-77
2023/02/06 12:48:54;;;;;;;;;;;;;;;22.59;15.25;98602.13;4960749;28;975;-78
2023/02/06 12:51:22;;;;;;;;;;;;;;;22.38;15.79;98599.72;4984255;28;1002;-77
2023/02/06 12:53:49;;;;;;;;;;;;;;;21.73;16.18;98612.25;5017830;28;946;-78
2023/02/06 12:56:20;;;;;;;;;;;;;;;22.12;16.10;98610.75;5016273;28;1492;-77
2023/02/06 12:58:45;;;;;;;;;;;;;;;22.45;15.69;98616.59;5016663;28;981;-77
2023/02/06 13:01:30;;;;;;;;;;;;;;;22.25;16.00;98617.38;5017941;28;943;-77